Time;durP1;ratioP1;P1;durP2;ratioP2;P2;SDS_P1;SDS_P2;PMS_P1;PMS_P2;Temp;Humidity;BMP_temperature;BMP_pressure;BME280_temperature;BME280_humidity;BME280_pressure;Samples;Min_cycle;Max_cycle;Signal;HPM_P1;HPM_P2
2022/11/09 00:00:47;;;;;;;11.30;10.20;;;14.80;99.90;;;;;;5072718;28;20495;-71
2022/11/09 00:03:14;;;;;;;11.50;10.37;;;14.80;99.90;;;;;;5066612;28;20474;-69
2022/11/09 00:05:42;;;;;;;11.00;10.03;;;14.70;99.90;;;;;;5071855;28;20462;-70
2022/11/09 00:08:10;;;;;;;11.23;10.57;;;14.60;99.90;;;;;;5072343;28;20467;-68
2022/11/09 00:10:38;;;;;;;10.67;10.07;;;14.60;99.90;;;;;;5068692;28;20462;-69
2022/11/09 00:13:05;;;;;;;10.93;10.43;;;14.50;99.90;;;;;;5073989;28;20834;-71
2022/11/09 00:15:32;;;;;;;11.20;10.60;;;14.50;99.90;;;;;;5075815;28;20466;-69
2022/11/09 00:18:01;;;;;;;11.43;10.60;;;14.40;99.90;;;;;;5073390;28;20470;-72
2022/11/09 00:20:28;;;;;;;10.80;10.30;;;14.40;99.90;;;;;;5074313;28;20566;-69
2022/11/09 00:22:57;;;;;;;11.20;10.60;;;14.30;99.90;;;;;;5077224;28;20470;-72
2022/11/09 00:25:24;;;;;;;12.80;10.37;;;14.30;99.90;;;;;;5071700;28;20447;-69
2022/11/09 00:27:51;;;;;;;11.37;10.67;;;14.20;99.90;;;;;;5070978;28;20502;-69
2022/11/09 00:30:18;;;;;;;10.37;9.87;;;14.20;99.90;;;;;;5071494;28;20464;-69
2022/11/09 00:32:46;;;;;;;11.60;10.53;;;14.20;99.90;;;;;;5068924;28;20545;-69
2022/11/09 00:35:13;;;;;;;11.07;10.47;;;14.20;99.90;;;;;;5074255;28;20525;-69
2022/11/09 00:37:40;;;;;;;11.30;10.60;;;14.20;99.90;;;;;;5071724;28;20459;-69
2022/11/09 00:40:10;;;;;;;10.80;10.20;;;14.20;99.90;;;;;;5071736;28;20972;-69
2022/11/09 00:42:37;;;;;;;10.90;10.40;;;14.30;99.90;;;;;;5070063;28;20466;-69
2022/11/09 00:45:04;;;;;;;10.90;10.40;;;14.30;99.90;;;;;;5074099;28;20465;-69
2022/11/09 00:47:31;;;;;;;10.47;9.97;;;14.30;99.90;;;;;;5075180;28;20596;-69
2022/11/09 00:49:58;;;;;;;11.77;10.90;;;14.30;99.90;;;;;;5073559;28;21038;-69
2022/11/09 00:52:25;;;;;;;11.47;10.90;;;14.30;99.90;;;;;;5079954;28;20454;-69
2022/11/09 00:54:53;;;;;;;11.13;10.53;;;14.30;99.90;;;;;;5065487;28;20463;-69
2022/11/09 00:57:21;;;;;;;11.53;10.83;;;14.30;99.90;;;;;;5070826;28;20465;-71
2022/11/09 00:59:48;;;;;;;11.77;11.00;;;14.30;99.90;;;;;;5070875;28;20471;-70
2022/11/09 01:02:15;;;;;;;14.43;10.70;;;14.30;99.90;;;;;;5068309;28;20458;-71
2022/11/09 01:04:42;;;;;;;11.60;10.90;;;14.20;99.90;;;;;;5075661;28;20808;-71
2022/11/09 01:07:09;;;;;;;11.57;10.60;;;14.20;99.90;;;;;;5074751;28;20821;-68
2022/11/09 01:09:36;;;;;;;11.50;10.80;;;14.20;99.90;;;;;;5072407;28;20462;-71
2022/11/09 01:12:03;;;;;;;10.80;10.30;;;14.10;99.90;;;;;;5072681;28;20709;-68
2022/11/09 01:14:31;;;;;;;11.50;10.80;;;14.10;99.90;;;;;;5071715;28;20455;-69
2022/11/09 01:16:58;;;;;;;10.83;10.33;;;14.10;99.90;;;;;;5069251;28;20470;-68
2022/11/09 01:19:25;;;;;;;11.57;10.77;;;14.00;99.90;;;;;;5069899;28;20467;-68
2022/11/09 01:21:51;;;;;;;10.57;9.97;;;14.00;99.90;;;;;;5069329;28;20462;-68
2022/11/09 01:24:18;;;;;;;11.07;10.23;;;14.00;99.90;;;;;;5077608;28;20466;-68
2022/11/09 01:26:45;;;;;;;10.97;10.43;;;13.90;99.90;;;;;;5068693;28;20908;-69
2022/11/09 01:29:12;;;;;;;10.90;10.30;;;13.90;99.90;;;;;;5074922;28;20465;-68
2022/11/09 01:31:40;;;;;;;10.67;9.97;;;13.80;99.90;;;;;;5068100;28;20462;-68
2022/11/09 01:34:07;;;;;;;11.27;10.30;;;13.80;99.90;;;;;;5070092;28;21022;-69
2022/11/09 01:36:33;;;;;;;9.77;9.37;;;13.70;99.90;;;;;;5069068;28;20885;-68
2022/11/09 01:39:00;;;;;;;10.43;9.93;;;13.70;99.90;;;;;;5078734;28;20454;-69
2022/11/09 01:41:28;;;;;;;10.47;9.70;;;13.70;99.90;;;;;;5066846;28;20462;-68
2022/11/09 01:44:11;;;;;;;10.83;10.10;;;13.70;99.90;;;;;;5077577;28;21067;-69
2022/11/09 01:46:46;;;;;;;10.60;9.80;;;13.60;99.90;;;;;;5078170;28;20478;-67
2022/11/09 01:49:19;;;;;;;10.50;9.80;;;13.60;99.90;;;;;;5073514;28;21098;-68
2022/11/09 01:51:50;;;;;;;10.50;10.00;;;13.60;99.90;;;;;;5071771;28;20571;-68
2022/11/09 01:54:20;;;;;;;10.43;9.60;;;13.60;99.90;;;;;;5068081;28;20455;-67
2022/11/09 01:56:50;;;;;;;11.27;10.43;;;13.50;99.90;;;;;;5076313;28;20493;-68
2022/11/09 01:59:20;;;;;;;10.57;9.77;;;13.50;99.90;;;;;;5071796;28;20466;-68
2022/11/09 02:01:49;;;;;;;10.60;9.70;;;13.50;99.90;;;;;;5069231;28;20941;-71
2022/11/09 02:04:21;;;;;;;10.73;9.87;;;13.50;99.90;;;;;;5072839;28;20493;-69
2022/11/09 02:06:50;;;;;;;10.40;9.70;;;13.50;99.90;;;;;;5071886;28;20572;-68
2022/11/09 02:09:23;;;;;;;11.67;10.77;;;13.50;99.90;;;;;;5075864;28;20467;-69
2022/11/09 02:11:50;;;;;;;11.20;10.40;;;13.40;99.90;;;;;;5067090;28;20459;-67
2022/11/09 02:14:18;;;;;;;11.20;10.40;;;13.40;99.90;;;;;;5066044;28;20459;-69
2022/11/09 02:16:48;;;;;;;11.37;10.30;;;13.40;99.90;;;;;;5072291;28;21030;-68
2022/11/09 02:19:15;;;;;;;11.27;10.23;;;13.40;99.90;;;;;;5075205;28;20465;-67
2022/11/09 02:21:43;;;;;;;11.43;10.33;;;13.40;99.90;;;;;;5072759;28;20463;-70
2022/11/09 02:24:10;;;;;;;11.60;10.70;;;13.40;99.90;;;;;;5073691;28;20470;-67
2022/11/09 02:26:42;;;;;;;10.77;10.20;;;13.40;99.90;;;;;;5070033;28;20962;-70
2022/11/09 02:29:11;;;;;;;10.87;10.10;;;13.40;99.90;;;;;;5073239;28;20477;-68
2022/11/09 02:31:43;;;;;;;10.70;10.10;;;13.40;99.90;;;;;;5073761;28;20463;-70
2022/11/09 02:34:13;;;;;;;11.23;10.30;;;13.30;99.90;;;;;;5076508;28;20474;-70
2022/11/09 02:36:42;;;;;;;10.20;9.40;;;13.30;99.90;;;;;;5075505;28;20875;-68
2022/11/09 02:39:11;;;;;;;14.20;9.90;;;13.30;99.90;;;;;;5071572;28;20469;-68
2022/11/09 02:41:46;;;;;;;10.83;9.90;;;13.30;99.90;;;;;;5074269;28;20847;-71
2022/11/09 02:44:14;;;;;;;13.20;10.80;;;13.30;99.90;;;;;;5074502;28;20469;-69
2022/11/09 02:46:41;;;;;;;10.00;9.23;;;13.30;99.90;;;;;;5070175;28;20458;-70
2022/11/09 02:49:08;;;;;;;10.73;10.03;;;13.20;99.90;;;;;;5073882;28;20465;-68
2022/11/09 02:51:35;;;;;;;11.17;10.20;;;13.20;99.90;;;;;;5065465;28;20463;-70
2022/11/09 02:54:03;;;;;;;10.30;9.50;;;13.20;99.90;;;;;;5071733;28;20467;-68
2022/11/09 02:56:31;;;;;;;10.17;9.37;;;13.20;99.90;;;;;;5070287;28;20466;-70
2022/11/09 02:58:58;;;;;;;10.60;9.70;;;13.20;99.90;;;;;;5074296;28;21041;-67
2022/11/09 03:01:25;;;;;;;11.20;9.60;;;13.30;99.90;;;;;;5075112;28;20801;-68
2022/11/09 03:03:52;;;;;;;10.10;9.27;;;13.40;99.90;;;;;;5072789;28;20490;-67
2022/11/09 03:06:32;;;;;;;10.30;9.20;;;13.40;99.90;;;;;;5073731;28;20481;-70
2022/11/09 03:08:59;;;;;;;11.13;10.17;;;13.50;99.90;;;;;;5074382;28;20896;-71
2022/11/09 03:11:26;;;;;;;11.03;10.00;;;13.60;99.90;;;;;;5069631;28;20469;-67
2022/11/09 03:13:55;;;;;;;11.60;10.60;;;13.70;99.90;;;;;;5075239;28;20462;-68
2022/11/09 03:16:23;;;;;;;10.67;9.90;;;13.70;99.90;;;;;;5073856;28;20969;-69
2022/11/09 03:18:51;;;;;;;10.57;9.87;;;13.80;99.90;;;;;;5077491;28;20801;-68
2022/11/09 03:21:18;;;;;;;11.10;9.70;;;13.80;99.90;;;;;;5071825;28;20827;-69
2022/11/09 03:23:45;;;;;;;11.03;10.23;;;13.90;99.90;;;;;;5072519;28;20457;-68
2022/11/09 03:26:12;;;;;;;13.43;10.60;;;13.90;99.90;;;;;;5073499;28;20458;-68
2022/11/09 03:28:39;;;;;;;10.53;9.83;;;13.90;99.90;;;;;;5076762;28;20490;-67
2022/11/09 03:31:08;;;;;;;10.97;10.10;;;13.90;99.90;;;;;;5078571;28;20451;-70
2022/11/09 03:33:35;;;;;;;11.00;10.50;;;13.80;99.90;;;;;;5069931;28;21036;-69
2022/11/09 03:36:03;;;;;;;11.10;10.33;;;13.80;99.90;;;;;;5073513;28;20497;-67
2022/11/09 03:38:30;;;;;;;13.33;10.77;;;13.70;99.90;;;;;;5077453;28;20462;-67
2022/11/09 03:41:00;;;;;;;11.13;10.30;;;13.70;99.90;;;;;;5072690;28;20457;-68
2022/11/09 03:43:28;;;;;;;11.33;10.17;;;13.70;99.90;;;;;;5072968;28;20796;-68
2022/11/09 03:45:54;;;;;;;11.00;9.87;;;13.70;99.90;;;;;;5080605;28;20488;-67
2022/11/09 03:48:23;;;;;;;11.27;10.20;;;13.60;99.90;;;;;;5074139;28;20490;-68
2022/11/09 03:50:50;;;;;;;10.87;10.00;;;13.60;99.90;;;;;;5075868;28;20459;-68
2022/11/09 03:53:18;;;;;;;10.63;9.90;;;13.70;99.90;;;;;;5076792;28;20866;-71
2022/11/09 03:55:45;;;;;;;12.60;11.43;;;13.70;99.90;;;;;;5077917;28;20520;-71
2022/11/09 03:58:12;;;;;;;10.80;10.00;;;13.80;99.90;;;;;;5078202;28;20508;-70
2022/11/09 04:00:40;;;;;;;11.60;10.53;;;13.80;99.90;;;;;;5074768;28;21081;-68
2022/11/09 04:03:08;;;;;;;11.47;10.03;;;13.90;99.90;;;;;;5079206;28;20484;-67
2022/11/09 04:05:37;;;;;;;11.43;10.63;;;14.00;99.90;;;;;;5079313;28;20492;-70
2022/11/09 04:08:04;;;;;;;11.07;10.13;;;14.00;99.90;;;;;;5079163;28;20483;-68
2022/11/09 04:10:30;;;;;;;10.93;9.83;;;14.00;99.90;;;;;;5076780;28;20463;-68
2022/11/09 04:12:58;;;;;;;11.40;10.33;;;14.00;99.90;;;;;;5080678;28;20461;-68
2022/11/09 04:15:25;;;;;;;10.47;9.87;;;14.10;99.90;;;;;;5078549;28;20450;-70
2022/11/09 04:17:57;;;;;;;10.83;10.23;;;14.10;99.90;;;;;;5072676;28;20470;-67
2022/11/09 04:20:25;;;;;;;10.77;9.77;;;14.10;99.90;;;;;;5076205;28;20474;-67
2022/11/09 04:22:56;;;;;;;11.17;10.37;;;14.00;99.90;;;;;;5071188;28;20457;-68
2022/11/09 04:25:24;;;;;;;12.17;10.90;;;14.00;99.90;;;;;;5082819;28;20485;-67
2022/11/09 04:27:55;;;;;;;10.80;9.90;;;14.00;99.90;;;;;;5074404;28;20677;-67
2022/11/09 04:30:22;;;;;;;11.63;10.53;;;14.00;99.90;;;;;;5071132;28;20556;-67
2022/11/09 04:32:48;;;;;;;11.80;10.83;;;14.00;99.90;;;;;;5074114;28;20462;-68
2022/11/09 04:35:16;;;;;;;12.67;11.97;;;14.10;99.90;;;;;;5078560;28;20988;-68
2022/11/09 04:37:43;;;;;;;13.43;12.30;;;14.00;99.90;;;;;;5074126;28;20542;-68
2022/11/09 04:40:12;;;;;;;13.27;12.23;;;13.90;99.90;;;;;;5067014;28;20469;-68
2022/11/09 04:42:39;;;;;;;14.33;13.40;;;13.80;99.90;;;;;;5072991;28;20459;-68
2022/11/09 04:45:07;;;;;;;23.93;14.60;;;13.70;99.90;;;;;;5075842;28;20462;-67
2022/11/09 04:47:34;;;;;;;15.80;14.13;;;13.70;99.90;;;;;;5075514;28;20512;-68
2022/11/09 04:50:01;;;;;;;14.97;13.77;;;13.50;99.90;;;;;;5078788;28;20462;-68
2022/11/09 04:52:28;;;;;;;14.10;13.07;;;13.50;99.90;;;;;;5072839;28;20458;-68
2022/11/09 04:54:55;;;;;;;14.97;13.10;;;13.50;99.90;;;;;;5075528;28;20466;-68
2022/11/09 04:57:23;;;;;;;14.00;13.03;;;13.50;99.90;;;;;;5076247;28;20461;-68
2022/11/09 04:59:50;;;;;;;13.93;13.00;;;13.50;99.90;;;;;;5072102;28;20465;-68
2022/11/09 05:02:18;;;;;;;13.67;12.60;;;13.50;99.90;;;;;;5069125;28;20474;-67
2022/11/09 05:04:45;;;;;;;12.53;11.30;;;13.50;99.90;;;;;;5074821;28;21173;-68
2022/11/09 05:07:12;;;;;;;12.10;11.20;;;13.50;99.90;;;;;;5073265;28;20463;-69
2022/11/09 05:09:39;;;;;;;10.60;9.80;;;13.60;99.90;;;;;;5073083;28;20458;-68
2022/11/09 05:12:06;;;;;;;9.70;9.00;;;13.60;99.90;;;;;;5069828;28;20733;-68
2022/11/09 05:14:36;;;;;;;9.47;8.77;;;13.70;99.90;;;;;;5071129;28;20455;-68
2022/11/09 05:17:03;;;;;;;9.67;8.90;;;13.70;99.90;;;;;;5070167;28;21047;-69
2022/11/09 05:19:30;;;;;;;15.23;8.80;;;13.80;99.90;;;;;;5069524;28;20462;-68
2022/11/09 05:23:57;;;;;;;10.10;9.37;;;13.80;99.90;;;;;;5071813;28;20463;-70
2022/11/09 05:24:45;;;;;;;9.73;9.13;;;13.80;99.90;;;;;;5072245;28;20628;-70
2022/11/09 05:27:11;;;;;;;9.97;9.03;;;13.80;99.90;;;;;;5071701;28;20461;-70
2022/11/09 05:29:39;;;;;;;10.53;9.70;;;13.90;99.90;;;;;;5068634;28;20566;-68
2022/11/09 05:32:07;;;;;;;10.33;9.50;;;13.90;99.90;;;;;;5073220;28;20463;-70
2022/11/09 05:34:34;;;;;;;10.27;9.37;;;13.90;99.90;;;;;;5071131;28;21027;-68
2022/11/09 05:37:01;;;;;;;11.20;10.10;;;13.80;99.90;;;;;;5070278;28;20486;-68
2022/11/09 05:39:28;;;;;;;10.10;9.30;;;13.70;99.90;;;;;;5075121;28;20851;-68
2022/11/09 05:41:55;;;;;;;16.90;10.27;;;13.70;99.90;;;;;;5075244;28;21014;-68
2022/11/09 05:44:23;;;;;;;12.73;9.77;;;13.60;99.90;;;;;;5069288;28;20841;-70
2022/11/09 05:46:51;;;;;;;9.73;9.00;;;13.60;99.90;;;;;;5069568;28;20515;-69
2022/11/09 05:49:18;;;;;;;10.93;10.23;;;13.60;99.90;;;;;;5069618;28;20638;-70
2022/11/09 05:51:45;;;;;;;10.47;9.30;;;13.70;99.90;;;;;;5071575;28;20831;-70
2022/11/09 05:54:12;;;;;;;10.93;10.07;;;13.70;99.90;;;;;;5063442;28;20455;-68
2022/11/09 05:56:38;;;;;;;12.87;10.43;;;13.70;99.90;;;;;;5070998;28;20461;-68
2022/11/09 05:59:05;;;;;;;9.83;9.33;;;13.70;99.90;;;;;;5073185;28;21162;-69
2022/11/09 06:01:32;;;;;;;11.00;9.97;;;13.70;99.90;;;;;;5067630;28;20450;-69
2022/11/09 06:04:00;;;;;;;10.10;9.50;;;13.70;99.90;;;;;;5069411;28;20546;-69
2022/11/09 06:06:28;;;;;;;10.93;10.33;;;13.70;99.90;;;;;;5064000;28;20855;-69
2022/11/09 06:08:56;;;;;;;15.57;10.77;;;13.60;99.90;;;;;;5075649;28;21000;-69
2022/11/09 06:11:23;;;;;;;9.77;9.17;;;13.60;99.90;;;;;;5072360;28;20463;-68
2022/11/09 06:13:49;;;;;;;10.80;10.00;;;13.50;99.90;;;;;;5066696;28;20503;-68
2022/11/09 06:16:17;;;;;;;11.77;9.00;;;13.40;99.90;;;;;;5075827;28;20470;-68
2022/11/09 06:18:44;;;;;;;9.10;8.50;;;13.30;99.90;;;;;;5073225;28;20473;-69
2022/11/09 06:21:12;;;;;;;8.77;8.23;;;13.30;99.90;;;;;;5070617;28;20467;-69
2022/11/09 06:23:38;;;;;;;10.20;8.10;;;13.20;99.90;;;;;;5072610;28;20857;-69
2022/11/09 06:26:08;;;;;;;8.77;8.10;;;13.10;99.90;;;;;;5068480;28;20561;-69
2022/11/09 06:28:35;;;;;;;8.73;8.00;;;13.10;99.90;;;;;;5074510;28;20614;-71
2022/11/09 06:31:04;;;;;;;10.20;9.00;;;13.00;99.90;;;;;;5078099;28;20488;-69
2022/11/09 06:33:31;;;;;;;10.20;9.60;;;12.90;99.90;;;;;;5069996;28;20463;-68
2022/11/09 06:35:59;;;;;;;10.47;8.20;;;13.00;99.90;;;;;;5071127;28;20493;-70
2022/11/09 06:38:28;;;;;;;9.73;8.83;;;12.90;99.90;;;;;;5069755;28;20482;-68
2022/11/09 06:40:56;;;;;;;8.77;8.07;;;12.90;99.90;;;;;;5071847;28;20465;-68
2022/11/09 06:43:23;;;;;;;8.50;8.00;;;12.90;99.90;;;;;;5070142;28;20781;-68
2022/11/09 06:45:50;;;;;;;9.03;8.37;;;12.90;99.90;;;;;;5066615;28;20838;-69
2022/11/09 06:48:17;;;;;;;8.80;8.40;;;12.80;99.90;;;;;;5073133;28;20496;-68
2022/11/09 06:50:44;;;;;;;8.27;7.90;;;12.80;99.90;;;;;;5071888;28;20955;-68
2022/11/09 06:53:13;;;;;;;8.97;8.47;;;12.70;99.90;;;;;;5075380;28;20652;-69
2022/11/09 06:55:41;;;;;;;8.77;8.17;;;12.70;99.90;;;;;;5076820;28;20519;-69
2022/11/09 06:58:09;;;;;;;9.07;8.57;;;12.50;99.90;;;;;;5071606;28;20969;-68
2022/11/09 07:00:37;;;;;;;10.30;9.70;;;12.50;99.90;;;;;;5070838;28;20466;-68
2022/11/09 07:03:04;;;;;;;9.53;9.00;;;12.50;99.90;;;;;;5069563;28;20577;-69
2022/11/09 07:05:32;;;;;;;9.37;8.57;;;12.40;99.90;;;;;;5073064;28;20486;-68
2022/11/09 07:07:59;;;;;;;9.97;9.17;;;12.40;99.90;;;;;;5073902;28;20458;-68
2022/11/09 07:10:25;;;;;;;9.93;9.10;;;12.30;99.90;;;;;;5075525;28;20824;-69
2022/11/09 07:12:57;;;;;;;10.47;9.40;;;12.20;99.90;;;;;;5074835;28;20451;-68
2022/11/09 07:15:25;;;;;;;9.27;8.53;;;12.20;99.90;;;;;;5073470;28;20898;-68
2022/11/09 07:17:56;;;;;;;9.30;8.40;;;12.20;99.90;;;;;;5068586;28;20817;-68
2022/11/09 07:20:23;;;;;;;9.93;9.33;;;12.20;99.90;;;;;;5070365;28;20542;-68
2022/11/09 07:22:50;;;;;;;10.10;9.20;;;12.10;99.90;;;;;;5074284;28;20473;-71
2022/11/09 07:25:18;;;;;;;9.30;8.70;;;12.00;99.90;;;;;;5071208;28;20459;-70
2022/11/09 07:27:45;;;;;;;9.83;9.13;;;12.00;99.90;;;;;;5070518;28;20498;-68
2022/11/09 07:30:15;;;;;;;9.97;8.90;;;11.90;99.90;;;;;;5070527;28;20805;-68
2022/11/09 07:32:42;;;;;;;10.60;8.93;;;12.00;99.90;;;;;;5074262;28;20458;-69
2022/11/09 07:35:09;;;;;;;8.73;8.13;;;12.00;99.90;;;;;;5066658;28;20491;-71
2022/11/09 07:37:36;;;;;;;8.80;8.20;;;12.00;99.90;;;;;;5067502;28;20992;-68
2022/11/09 07:40:04;;;;;;;10.00;9.40;;;12.00;99.90;;;;;;5072986;28;20459;-69
2022/11/09 07:42:31;;;;;;;9.23;8.33;;;12.10;99.90;;;;;;5073088;28;20566;-68
2022/11/09 07:44:58;;;;;;;9.40;8.47;;;12.10;99.90;;;;;;5075500;28;20458;-69
2022/11/09 07:47:26;;;;;;;8.77;8.17;;;12.10;99.90;;;;;;5073867;28;20493;-68
2022/11/09 07:49:53;;;;;;;8.30;7.80;;;12.10;99.90;;;;;;5067180;28;20832;-69
2022/11/09 07:52:20;;;;;;;8.20;7.53;;;12.20;99.90;;;;;;5074569;28;21004;-69
2022/11/09 07:54:47;;;;;;;10.97;8.63;;;12.20;99.90;;;;;;5073412;28;20896;-69
2022/11/09 07:57:13;;;;;;;9.83;8.93;;;12.30;99.90;;;;;;5065903;28;21662;-68
2022/11/09 07:59:40;;;;;;;9.40;8.60;;;12.30;99.90;;;;;;5061266;28;20458;-68
2022/11/09 08:02:08;;;;;;;8.50;8.00;;;12.30;99.90;;;;;;5073648;28;20458;-68
2022/11/09 08:04:37;;;;;;;7.90;7.50;;;12.40;99.90;;;;;;5076366;28;20758;-69
2022/11/09 08:07:04;;;;;;;7.93;7.27;;;12.40;99.90;;;;;;5072922;28;20457;-68
2022/11/09 08:09:30;;;;;;;7.97;7.37;;;12.50;99.90;;;;;;5068404;28;20600;-68
2022/11/09 08:11:57;;;;;;;8.60;7.90;;;12.50;99.90;;;;;;5070366;28;20831;-70
2022/11/09 08:14:24;;;;;;;10.07;8.97;;;12.60;99.90;;;;;;5075314;28;20575;-69
2022/11/09 08:16:51;;;;;;;9.60;9.10;;;12.60;99.90;;;;;;5071827;28;20462;-68
2022/11/09 08:19:18;;;;;;;9.30;8.60;;;12.70;99.90;;;;;;5075150;28;20454;-68
2022/11/09 08:21:46;;;;;;;17.23;9.83;;;12.80;99.90;;;;;;5071088;28;20483;-71
2022/11/09 08:24:13;;;;;;;10.17;9.30;;;12.90;99.90;;;;;;5058648;28;21166;-70
2022/11/09 08:26:40;;;;;;;10.03;9.37;;;13.00;99.90;;;;;;5065762;28;21458;-68
2022/11/09 08:29:07;;;;;;;9.97;9.27;;;13.10;99.90;;;;;;5061757;28;20489;-68
2022/11/09 08:31:34;;;;;;;10.70;9.90;;;13.20;99.90;;;;;;5066896;28;20524;-68
2022/11/09 08:34:01;;;;;;;11.03;10.20;;;13.30;99.90;;;;;;5071501;28;20474;-68
2022/11/09 08:36:28;;;;;;;10.97;10.10;;;13.50;99.90;;;;;;5074513;28;20864;-68
2022/11/09 08:38:58;;;;;;;11.30;10.50;;;13.50;99.90;;;;;;5071303;28;20918;-69
2022/11/09 08:41:24;;;;;;;11.07;10.40;;;13.70;99.90;;;;;;5071450;28;20550;-69
2022/11/09 08:43:51;;;;;;;12.37;11.20;;;13.70;99.90;;;;;;5073620;28;20463;-69
2022/11/09 08:46:18;;;;;;;12.07;11.07;;;13.80;99.90;;;;;;5074148;28;20801;-69
2022/11/09 08:48:45;;;;;;;12.63;11.77;;;13.90;99.90;;;;;;5072787;28;20531;-69
2022/11/09 08:51:12;;;;;;;17.00;11.90;;;14.00;99.90;;;;;;5073049;28;20504;-70
2022/11/09 08:53:38;;;;;;;13.17;12.10;;;14.10;99.90;;;;;;5075740;28;20638;-69
2022/11/09 08:56:08;;;;;;;12.27;11.57;;;14.10;99.90;;;;;;5072835;28;20969;-69
2022/11/09 08:58:35;;;;;;;12.60;11.80;;;14.10;99.90;;;;;;5072957;28;20477;-69
2022/11/09 09:01:06;;;;;;;13.70;12.67;;;14.10;99.90;;;;;;5075043;28;20473;-70
2022/11/09 09:03:34;;;;;;;13.43;12.53;;;14.10;99.90;;;;;;5076212;28;20459;-71
2022/11/09 09:06:03;;;;;;;14.60;12.57;;;14.20;99.90;;;;;;5072257;28;20578;-71
2022/11/09 09:08:30;;;;;;;13.33;12.63;;;14.20;99.90;;;;;;5070168;28;20460;-69
2022/11/09 09:10:56;;;;;;;13.33;12.50;;;14.40;99.90;;;;;;5074681;28;20824;-71
2022/11/09 09:13:24;;;;;;;13.63;12.73;;;14.50;99.90;;;;;;5076960;28;20466;-69
2022/11/09 09:15:52;;;;;;;14.27;13.40;;;14.40;99.90;;;;;;5073811;28;20462;-69
2022/11/09 09:18:18;;;;;;;15.43;14.13;;;14.50;99.90;;;;;;5072566;28;20466;-69
2022/11/09 09:20:45;;;;;;;15.87;14.93;;;14.50;99.90;;;;;;5076272;28;20467;-72
2022/11/09 09:23:14;;;;;;;14.80;13.80;;;14.50;99.90;;;;;;5079216;28;20462;-69
2022/11/09 09:25:41;;;;;;;15.43;14.00;;;14.50;99.90;;;;;;5072162;28;20455;-69
2022/11/09 09:28:08;;;;;;;15.97;14.73;;;14.40;99.90;;;;;;5073089;28;20550;-69
2022/11/09 09:30:36;;;;;;;15.43;14.23;;;14.50;99.90;;;;;;5069425;28;20491;-72
2022/11/09 09:33:03;;;;;;;13.70;12.90;;;14.50;99.90;;;;;;5075429;28;20870;-71
2022/11/09 09:35:30;;;;;;;15.43;14.43;;;14.50;99.90;;;;;;5078541;28;20966;-70
2022/11/09 09:37:57;;;;;;;14.93;13.93;;;14.50;99.90;;;;;;5074427;28;20463;-70
2022/11/09 09:40:28;;;;;;;14.90;14.10;;;14.50;99.90;;;;;;5073715;28;20545;-69
2022/11/09 09:42:55;;;;;;;15.67;14.33;;;14.50;99.90;;;;;;5073721;28;20472;-69
2022/11/09 09:45:25;;;;;;;14.60;13.83;;;14.50;99.90;;;;;;5070532;28;21315;-70
2022/11/09 09:47:58;;;;;;;15.97;15.00;;;14.40;99.90;;;;;;5077575;28;20490;-69
2022/11/09 09:50:29;;;;;;;15.20;14.00;;;14.40;99.90;;;;;;5077815;28;20494;-71
2022/11/09 09:53:01;;;;;;;15.07;13.97;;;14.40;99.90;;;;;;5073749;28;20493;-71
2022/11/09 09:55:35;;;;;;;16.10;14.70;;;14.40;99.90;;;;;;5067383;28;20462;-71
2022/11/09 09:58:10;;;;;;;14.70;13.53;;;14.40;99.90;;;;;;5076182;28;20473;-69
2022/11/09 10:00:38;;;;;;;15.90;14.30;;;14.50;99.90;;;;;;5069491;28;21593;-69
2022/11/09 10:03:14;;;;;;;14.60;13.80;;;14.40;99.90;;;;;;5074343;28;20474;-71
2022/11/09 10:05:50;;;;;;;15.00;13.90;;;14.30;99.90;;;;;;5078582;28;20833;-71
2022/11/09 10:08:27;;;;;;;15.33;14.43;;;14.40;99.90;;;;;;5066910;28;20483;-68
2022/11/09 10:11:06;;;;;;;15.30;14.17;;;14.40;99.90;;;;;;5074403;28;20485;-70
2022/11/09 10:14:02;;;;;;;14.63;13.73;;;14.50;99.90;;;;;;5072752;28;20459;-69
2022/11/09 10:16:39;;;;;;;15.87;14.57;;;14.40;99.90;;;;;;5070136;28;20454;-69
2022/11/09 10:19:29;;;;;;;14.90;13.90;;;14.30;99.90;;;;;;5075688;28;20462;-72
2022/11/09 10:22:05;;;;;;;15.77;14.87;;;14.40;99.90;;;;;;5074309;28;20467;-69
2022/11/09 10:24:43;;;;;;;19.57;17.73;;;14.40;99.90;;;;;;5075504;28;20465;-69
2022/11/09 10:27:24;;;;;;;16.17;15.07;;;14.40;99.90;;;;;;5074001;28;20462;-72
2022/11/09 10:29:51;;;;;;;15.20;14.13;;;14.30;99.90;;;;;;5073248;28;20494;-69
2022/11/09 10:32:20;;;;;;;14.60;13.70;;;14.40;99.90;;;;;;5077556;28;20835;-69
2022/11/09 10:34:54;;;;;;;15.63;14.40;;;14.60;99.90;;;;;;5080776;28;20540;-72
2022/11/09 10:37:27;;;;;;;14.67;13.70;;;14.90;99.90;;;;;;5079482;28;20473;-69
2022/11/09 10:40:02;;;;;;;16.80;15.50;;;15.10;99.90;;;;;;5074681;28;20467;-70
2022/11/09 10:42:29;;;;;;;15.80;14.53;;;15.30;99.90;;;;;;5079257;28;20952;-70
2022/11/09 10:44:56;;;;;;;14.80;13.73;;;15.60;99.90;;;;;;5075253;28;20775;-71
2022/11/09 10:47:25;;;;;;;14.73;13.83;;;15.80;99.90;;;;;;5078128;28;20470;-70
2022/11/09 10:50:14;;;;;;;16.30;15.07;;;15.80;99.90;;;;;;5077665;28;20686;-70
2022/11/09 10:52:41;;;;;;;15.20;14.20;;;15.80;99.90;;;;;;5082793;28;20544;-70
2022/11/09 10:55:24;;;;;;;15.67;14.40;;;15.90;99.90;;;;;;5078888;28;20961;-70
2022/11/09 10:57:54;;;;;;;15.67;14.60;;;15.80;99.90;;;;;;5077821;28;20949;-69
2022/11/09 11:00:21;;;;;;;14.93;13.97;;;15.80;99.90;;;;;;5075183;28;20465;-70
2022/11/09 11:02:50;;;;;;;14.13;13.23;;;16.00;99.90;;;;;;5078652;28;20466;-70
2022/11/09 11:05:40;;;;;;;15.13;13.93;;;16.30;99.90;;;;;;5081836;28;20492;-70
2022/11/09 11:08:38;;;;;;;15.10;13.90;;;16.40;99.90;;;;;;5081668;28;20458;-70
2022/11/09 11:11:26;;;;;;;15.20;13.83;;;16.40;99.90;;;;;;4996113;28;20522;-70
2022/11/09 11:14:10;;;;;;;16.07;14.40;;;16.40;99.90;;;;;;5069899;28;20849;-70
2022/11/09 11:16:38;;;;;;;15.60;14.50;;;16.50;99.90;;;;;;5074495;28;20470;-72
2022/11/09 11:19:06;;;;;;;15.83;14.87;;;16.60;99.90;;;;;;5077232;28;20463;-70
2022/11/09 11:21:34;;;;;;;15.53;14.30;;;16.30;99.90;;;;;;5075686;28;20466;-69
2022/11/09 11:24:15;;;;;;;15.20;14.17;;;16.20;99.90;;;;;;5078709;28;20469;-70
2022/11/09 11:26:52;;;;;;;15.77;14.83;;;16.10;99.90;;;;;;5077441;28;20465;-69
2022/11/09 11:29:41;;;;;;;15.13;14.23;;;16.10;99.90;;;;;;5076423;28;20545;-69
2022/11/09 11:32:14;;;;;;;16.60;14.80;;;16.10;99.90;;;;;;5082476;28;20467;-70
2022/11/09 11:34:42;;;;;;;16.00;14.53;;;16.20;99.90;;;;;;5080725;28;20474;-70
2022/11/09 11:37:30;;;;;;;15.30;14.40;;;16.30;99.90;;;;;;5076026;28;20475;-73
2022/11/09 11:40:02;;;;;;;15.90;14.40;;;16.40;99.90;;;;;;5078154;28;20500;-69
2022/11/09 11:43:01;;;;;;;16.40;14.80;;;16.50;99.90;;;;;;5073127;28;20457;-70
2022/11/09 11:45:32;;;;;;;16.37;14.87;;;17.00;99.90;;;;;;5078217;28;20864;-70
2022/11/09 11:48:26;;;;;;;16.37;15.03;;;17.00;99.90;;;;;;5076780;28;20458;-70
2022/11/09 11:50:58;;;;;;;16.07;15.07;;;17.40;99.90;;;;;;5079911;28;20502;-72
2022/11/09 11:53:47;;;;;;;16.13;14.60;;;17.30;99.90;;;;;;5080133;28;20454;-70
2022/11/09 11:56:22;;;;;;;15.60;14.40;;;17.20;99.90;;;;;;5078594;28;20558;-69
2022/11/09 11:59:06;;;;;;;16.00;14.93;;;17.00;99.90;;;;;;5080565;28;20457;-69
2022/11/09 12:01:49;;;;;;;16.13;15.10;;;16.70;99.90;;;;;;5076263;28;20454;-69
2022/11/09 12:04:37;;;;;;;16.27;15.17;;;16.70;99.90;;;;;;5070373;28;20789;-71
2022/11/09 12:07:24;;;;;;;17.77;15.90;;;16.70;99.90;;;;;;5073230;28;20890;-68
2022/11/09 12:10:07;;;;;;;16.60;15.50;;;16.50;99.90;;;;;;5075009;28;20498;-71
2022/11/09 12:12:43;;;;;;;16.60;15.53;;;16.30;99.90;;;;;;5073255;28;20454;-69
2022/11/09 12:15:34;;;;;;;16.50;15.23;;;16.40;99.90;;;;;;5073728;28;21067;-68
2022/11/09 12:18:11;;;;;;;16.90;15.40;;;16.40;99.90;;;;;;5078780;28;20535;-68
2022/11/09 12:20:48;;;;;;;16.93;15.30;;;16.50;99.90;;;;;;5079394;28;21246;-68
2022/11/09 12:23:26;;;;;;;16.40;15.10;;;16.40;99.90;;;;;;5073770;28;20454;-68
2022/11/09 12:26:04;;;;;;;16.03;14.83;;;16.20;99.90;;;;;;5075001;28;21051;-69
2022/11/09 12:28:54;;;;;;;16.70;15.47;;;16.00;99.90;;;;;;5073838;28;20902;-70
2022/11/09 12:31:32;;;;;;;17.23;15.80;;;16.10;99.90;;;;;;5074614;28;20482;-71
2022/11/09 12:34:02;;;;;;;15.77;14.77;;;16.00;99.90;;;;;;5071154;28;20473;-67
2022/11/09 12:36:37;;;;;;;15.83;14.60;;;15.90;99.90;;;;;;5077331;28;20830;-69
2022/11/09 12:39:11;;;;;;;16.07;14.90;;;15.80;99.90;;;;;;5077561;28;20477;-68
2022/11/09 12:41:40;;;;;;;17.10;15.90;;;15.60;99.90;;;;;;5076987;28;20454;-67
2022/11/09 12:44:12;;;;;;;16.90;15.43;;;15.60;99.90;;;;;;5074259;28;20458;-71
2022/11/09 12:46:44;;;;;;;17.00;15.20;;;15.70;99.90;;;;;;5074639;28;20545;-67